Time;durP1;ratioP1;P1;durP2;ratioP2;P2;SDS_P1;SDS_P2;PMS_P1;PMS_P2;Temp;Humidity;BMP_temperature;BMP_pressure;BME280_temperature;BME280_humidity;BME280_pressure;Samples;Min_cycle;Max_cycle;Signal;HPM_P1;HPM_P2
2022/10/15 00:01:05;70471.00;0.23;122.57;0.00;0.00;0.62;;;;;19.70;7.50;;;;;;2276611;61;1038;-85
2022/10/15 00:03:32;94775.00;0.32;164.55;0.00;0.00;0.62;;;;;19.70;7.10;;;;;;2276554;61;1113;-85
2022/10/15 00:06:04;81990.00;0.27;142.47;0.00;0.00;0.62;;;;;19.80;6.30;;;;;;2276534;61;1320;-87
2022/10/15 00:11:06;439389.00;1.46;757.53;0.00;0.00;0.62;;;;;19.80;7.70;;;;;;2270503;61;1405;-86
2022/10/15 00:13:33;120751.00;0.40;209.38;0.00;0.00;0.62;;;;;19.80;8.00;;;;;;2268437;61;1911;-87
2022/10/15 00:16:02;212242.00;0.71;366.99;0.00;0.00;0.62;;;;;19.50;9.00;;;;;;2268431;61;1249;-87
2022/10/15 00:18:29;230029.00;0.77;397.60;0.00;0.00;0.62;;;;;19.40;9.00;;;;;;2268314;61;1029;-86
2022/10/15 00:20:56;184269.00;0.61;318.84;0.00;0.00;0.62;;;;;19.50;9.00;;;;;;2268441;61;1032;-87
2022/10/15 00:23:22;252759.00;0.84;436.70;0.00;0.00;0.62;;;;;19.50;8.80;;;;;;2268448;61;1018;-89
2022/10/15 00:25:49;202701.00;0.68;350.57;0.00;0.00;0.62;;;;;19.40;9.10;;;;;;2268383;61;1286;-86
2022/10/15 00:28:16;175752.00;0.59;304.17;0.00;0.00;0.62;;;;;19.50;8.90;;;;;;2268461;61;1064;-85
2022/10/15 00:30:43;193992.00;0.65;335.58;0.00;0.00;0.62;;;;;19.50;8.70;;;;;;2268450;61;1055;-87
2022/10/15 00:33:11;106708.00;0.36;185.15;0.00;0.00;0.62;;;;;19.60;7.50;;;;;;2268354;61;1995;-85
2022/10/15 00:35:38;175665.00;0.59;304.02;0.00;0.00;0.62;;;;;19.70;7.70;;;;;;2268393;61;1466;-86
2022/10/15 00:38:05;141586.00;0.47;245.30;0.00;0.00;0.62;;;;;20.00;6.50;;;;;;2268415;61;1048;-86
2022/10/15 00:40:32;100061.00;0.33;173.68;0.00;0.00;0.62;;;;;19.90;6.20;;;;;;2268405;61;889;-88
2022/10/15 00:42:58;211696.00;0.71;366.05;0.00;0.00;0.62;;;;;19.80;7.50;;;;;;2268392;61;1040;-86
2022/10/15 00:45:25;224555.00;0.75;388.18;0.00;0.00;0.62;;;;;19.90;7.10;;;;;;2268328;61;1293;-87
2022/10/15 00:47:54;194067.00;0.65;335.71;0.00;0.00;0.62;;;;;19.80;7.80;;;;;;2268381;61;1060;-87
2022/10/15 00:50:27;173873.00;0.58;300.94;0.00;0.00;0.62;;;;;19.70;8.10;;;;;;2268292;61;1519;-86
2022/10/15 00:53:02;114336.00;0.38;198.31;0.00;0.00;0.62;;;;;19.40;9.40;;;;;;2268354;61;1922;-86
2022/10/15 00:55:31;99100.00;0.33;172.02;0.00;0.00;0.62;;;;;19.40;10.30;;;;;;2268314;61;1480;-86
2022/10/15 00:58:02;50456.00;0.17;87.97;0.00;0.00;0.62;;;;;19.30;9.90;;;;;;2268365;61;1193;-85
2022/10/15 01:00:29;90038.00;0.30;156.37;0.00;0.00;0.62;;;;;19.50;10.30;;;;;;2268376;61;1061;-87
2022/10/15 01:02:56;0.00;0.00;0.62;0.00;0.00;0.62;;;;;19.50;9.70;;;;;;2268346;61;1017;-87
2022/10/15 01:05:25;4590.00;0.02;8.58;0.00;0.00;0.62;;;;;19.70;9.40;;;;;;2268103;61;1264;-86
2022/10/15 01:07:52;213983.00;0.71;369.99;0.00;0.00;0.62;;;;;19.70;8.60;;;;;;2268278;61;1199;-88
2022/10/15 01:10:20;131445.00;0.44;227.82;0.00;0.00;0.62;;;;;19.70;8.90;;;;;;2268272;61;1132;-87
2022/10/15 01:12:58;47569.00;0.16;82.98;0.00;0.00;0.62;;;;;19.50;9.40;;;;;;2268336;61;894;-88
2022/10/15 01:15:33;137926.00;0.46;239.00;0.00;0.00;0.62;;;;;19.70;9.20;;;;;;2268317;61;1328;-87
2022/10/15 01:18:08;205467.00;0.68;355.33;0.00;0.00;0.62;;;;;19.80;8.70;;;;;;2268359;61;926;-85
2022/10/15 01:20:56;201322.00;0.67;348.20;0.00;0.00;0.62;;;;;19.70;9.00;;;;;;2268180;61;1019;-88
2022/10/15 01:24:06;115938.00;0.39;201.08;0.00;0.00;0.62;;;;;19.60;9.50;;;;;;2268210;61;1101;-86
2022/10/15 01:27:00;143826.00;0.48;249.17;23615.00;0.08;41.53;;;;;19.40;9.80;;;;;;2259070;61;1322;-87
2022/10/15 01:29:47;103092.00;0.34;178.91;0.00;0.00;0.62;;;;;19.20;11.20;;;;;;2268303;61;1098;-88
2022/10/15 01:32:23;238728.00;0.80;412.56;0.00;0.00;0.62;;;;;19.00;11.80;;;;;;2268259;61;927;-88
2022/10/15 01:34:56;16664.00;0.06;29.49;0.00;0.00;0.62;;;;;19.20;11.60;;;;;;2268131;61;1981;-86
2022/10/15 01:37:34;115441.00;0.38;200.22;0.00;0.00;0.62;;;;;19.40;11.20;;;;;;2268204;61;1747;-87
2022/10/15 01:40:07;36079.00;0.12;63.10;0.00;0.00;0.62;;;;;19.70;10.40;;;;;;2268276;61;1126;-89
2022/10/15 01:42:42;84550.00;0.28;146.90;0.00;0.00;0.62;;;;;19.50;10.40;;;;;;2268255;61;1023;-86
2022/10/15 01:45:14;69666.00;0.23;121.18;0.00;0.00;0.62;;;;;19.50;10.10;;;;;;2268151;61;1408;-87
2022/10/15 01:47:48;185434.00;0.62;320.85;0.00;0.00;0.62;;;;;19.50;10.20;;;;;;2268205;61;1498;-87
2022/10/15 01:50:18;57906.00;0.19;100.86;0.00;0.00;0.62;;;;;19.60;10.10;;;;;;2268237;61;1101;-86
2022/10/15 01:52:45;108393.00;0.36;188.06;0.00;0.00;0.62;;;;;19.80;9.50;;;;;;2268176;61;936;-87
2022/10/15 01:55:16;87550.00;0.29;152.08;0.00;0.00;0.62;;;;;19.90;9.00;;;;;;2268147;61;1994;-86
2022/10/15 01:57:46;133397.00;0.44;231.19;0.00;0.00;0.62;;;;;20.00;8.30;;;;;;2268178;61;1142;-84
2022/10/15 02:00:13;36655.00;0.12;64.10;0.00;0.00;0.62;;;;;19.90;7.80;;;;;;2268180;61;913;-87
2022/10/15 02:02:42;98798.00;0.33;171.50;0.00;0.00;0.62;;;;;19.80;8.90;;;;;;2268114;61;1082;-87
2022/10/15 02:05:15;170209.00;0.57;294.63;0.00;0.00;0.62;;;;;20.00;7.60;;;;;;2268022;61;1296;-87
2022/10/15 02:07:52;139057.00;0.46;240.95;0.00;0.00;0.62;;;;;19.60;9.40;;;;;;2268171;61;984;-86
2022/10/15 02:10:26;106471.00;0.35;184.74;0.00;0.00;0.62;;;;;19.40;10.90;;;;;;2268079;61;1122;-87
2022/10/15 02:13:04;292933.00;0.98;505.77;0.00;0.00;0.62;;;;;19.10;12.20;;;;;;2268148;61;1056;-87
2022/10/15 02:15:41;116064.00;0.39;201.29;0.00;0.00;0.62;;;;;18.90;13.70;;;;;;2268090;61;1932;-89
2022/10/15 02:18:18;247370.00;0.82;427.43;0.00;0.00;0.62;;;;;18.80;14.00;;;;;;2268514;61;1027;-87
2022/10/15 02:20:53;90896.00;0.30;157.85;0.00;0.00;0.62;;;;;18.60;15.20;;;;;;2268858;61;1092;-87
2022/10/15 02:23:23;440179.00;1.47;758.89;48132.00;0.16;83.96;;;;;18.30;16.20;;;;;;2268865;61;1755;-88
2022/10/15 02:25:51;129753.00;0.43;224.90;0.00;0.00;0.62;;;;;17.80;19.50;;;;;;2268727;61;1464;-87
2022/10/15 02:28:19;174277.00;0.58;301.63;0.00;0.00;0.62;;;;;17.80;20.40;;;;;;2268862;61;941;-87
2022/10/15 02:30:51;93600.00;0.31;162.52;0.00;0.00;0.62;;;;;18.10;19.60;;;;;;2268740;61;1038;-86
2022/10/15 02:33:21;178450.00;0.59;308.82;0.00;0.00;0.62;;;;;18.10;18.60;;;;;;2268807;61;1344;-87
2022/10/15 02:35:52;179375.00;0.60;310.41;0.00;0.00;0.62;;;;;17.80;20.70;;;;;;2268601;61;1924;-88
2022/10/15 02:38:23;75014.00;0.25;130.42;0.00;0.00;0.62;;;;;17.80;20.90;;;;;;2268842;61;949;-86
2022/10/15 02:40:51;85224.00;0.28;148.06;0.00;0.00;0.62;;;;;18.00;20.10;;;;;;2268807;61;1040;-88
2022/10/15 02:43:21;72466.00;0.24;126.02;0.00;0.00;0.62;;;;;18.40;18.00;;;;;;2268861;61;1032;-87
2022/10/15 02:45:49;223237.00;0.74;385.91;0.00;0.00;0.62;;;;;18.70;16.50;;;;;;2268660;61;1353;-87
2022/10/15 02:48:16;194487.00;0.65;336.43;0.00;0.00;0.62;;;;;19.00;15.70;;;;;;2268725;61;1067;-88
2022/10/15 02:50:44;30136.00;0.10;52.82;0.00;0.00;0.62;;;;;19.10;14.70;;;;;;2268825;61;925;-87
2022/10/15 02:53:11;266683.00;0.89;460.64;0.00;0.00;0.62;;;;;18.80;14.90;;;;;;2268685;61;1083;-88
2022/10/15 02:55:38;177441.00;0.59;307.08;0.00;0.00;0.62;;;;;18.50;16.30;;;;;;2268653;61;1931;-88
2022/10/15 02:58:05;115193.00;0.38;199.79;0.00;0.00;0.62;;;;;18.70;16.40;;;;;;2268768;61;941;-87
2022/10/15 03:00:32;70460.00;0.23;122.56;0.00;0.00;0.62;;;;;18.90;15.10;;;;;;2268810;61;1143;-86
2022/10/15 03:02:59;347441.00;1.16;599.46;0.00;0.00;0.62;;;;;18.70;16.20;;;;;;2268672;61;1107;-87
2022/10/15 03:05:26;98481.00;0.33;170.95;0.00;0.00;0.62;;;;;18.70;16.40;;;;;;2268685;61;1320;-87
2022/10/15 03:07:59;205135.00;0.68;354.76;0.00;0.00;0.62;;;;;18.70;16.50;;;;;;2268718;61;1132;-86
2022/10/15 03:10:26;191910.00;0.64;332.00;0.00;0.00;0.62;;;;;18.90;15.40;;;;;;2268645;61;1113;-87
2022/10/15 03:12:53;193363.00;0.64;334.50;0.00;0.00;0.62;;;;;19.00;14.70;;;;;;2268741;61;894;-87
2022/10/15 03:15:20;45159.00;0.15;78.81;0.00;0.00;0.62;;;;;19.00;13.80;;;;;;2268586;61;2181;-86
2022/10/15 03:17:47;194664.00;0.65;336.74;0.00;0.00;0.62;;;;;18.80;15.20;;;;;;2268533;61;1548;-86
2022/10/15 03:20:14;61115.00;0.20;106.40;0.00;0.00;0.62;;;;;18.50;15.90;;;;;;2268701;61;1072;-87
2022/10/15 03:22:41;147866.00;0.49;256.13;0.00;0.00;0.62;;;;;18.50;16.30;;;;;;2268701;61;1085;-86
2022/10/15 03:25:09;113477.00;0.38;196.83;0.00;0.00;0.62;;;;;18.40;16.20;;;;;;2268453;61;1325;-87
2022/10/15 03:27:36;245173.00;0.82;423.65;0.00;0.00;0.62;;;;;18.40;16.50;;;;;;2268529;61;1008;-85
2022/10/15 03:30:04;196836.00;0.66;340.48;0.00;0.00;0.62;;;;;18.40;17.50;;;;;;2268509;61;1639;-88
2022/10/15 03:32:31;84343.00;0.28;146.54;0.00;0.00;0.62;;;;;18.40;17.30;;;;;;2268516;61;1695;-86
2022/10/15 03:34:58;152531.00;0.51;264.17;0.00;0.00;0.62;;;;;18.40;17.20;;;;;;2268504;61;2000;-87
2022/10/15 03:37:25;102042.00;0.34;177.10;0.00;0.00;0.62;;;;;18.30;16.50;;;;;;2268557;61;1094;-86
2022/10/15 03:39:52;416106.00;1.39;717.50;109701.00;0.37;190.31;;;;;18.00;18.20;;;;;;2268497;61;972;-87
2022/10/15 03:42:20;179849.00;0.60;311.23;0.00;0.00;0.62;;;;;17.70;20.40;;;;;;2277243;40;3560;-87
2022/10/15 03:44:47;129310.00;0.43;224.14;0.00;0.00;0.62;;;;;17.70;20.20;;;;;;2276543;61;1366;-85
2022/10/15 03:47:14;288708.00;0.96;498.51;50801.00;0.17;88.57;;;;;17.50;21.50;;;;;;2276590;61;1026;-90
2022/10/15 03:49:40;826896.00;2.76;1428.07;281212.00;0.94;485.62;;;;;17.50;21.80;;;;;;2276569;61;953;-88
2022/10/15 03:52:07;146243.00;0.49;253.33;0.00;0.00;0.62;;;;;17.40;23.10;;;;;;2276655;61;1096;-87
2022/10/15 03:54:34;205174.00;0.68;354.83;0.00;0.00;0.62;;;;;17.40;21.90;;;;;;2276356;61;2000;-87
2022/10/15 03:57:01;173903.00;0.58;300.99;72546.00;0.24;126.16;;;;;17.50;22.30;;;;;;2276404;61;1019;-88
2022/10/15 03:59:29;218115.00;0.73;377.10;0.00;0.00;0.62;;;;;17.50;21.80;;;;;;2276499;61;1036;-87
2022/10/15 04:01:56;125523.00;0.42;217.61;0.00;0.00;0.62;;;;;17.50;22.10;;;;;;2276588;61;1108;-87
2022/10/15 04:04:23;128905.00;0.43;223.44;0.00;0.00;0.62;;;;;17.60;22.30;;;;;;2276645;61;1380;-87
2022/10/15 04:06:50;66069.00;0.22;114.97;0.00;0.00;0.62;;;;;17.80;20.50;;;;;;2276573;61;1211;-88
2022/10/15 04:09:17;114890.00;0.38;199.27;0.00;0.00;0.62;;;;;18.00;20.40;;;;;;2276557;61;1139;-87
2022/10/15 04:11:44;215434.00;0.72;372.49;0.00;0.00;0.62;;;;;18.00;18.70;;;;;;2282091;40;3712;-86
2022/10/15 04:14:11;337847.00;1.13;582.97;0.00;0.00;0.62;;;;;18.30;17.60;;;;;;2276435;61;2009;-87
2022/10/15 04:16:39;307945.00;1.03;531.58;0.00;0.00;0.62;;;;;18.20;17.60;;;;;;2276469;61;915;-86
2022/10/15 04:19:06;167696.00;0.56;290.30;0.00;0.00;0.62;;;;;18.00;17.90;;;;;;2276544;61;1027;-88
2022/10/15 04:21:33;365087.00;1.22;629.79;45236.00;0.15;78.95;;;;;17.90;18.60;;;;;;2276593;61;987;-87
2022/10/15 04:24:00;312880.00;1.04;540.06;0.00;0.00;0.62;;;;;17.90;19.50;;;;;;2276378;61;1293;-88
2022/10/15 04:26:27;225214.00;0.75;389.31;0.00;0.00;0.62;;;;;17.90;18.30;;;;;;2276391;61;1041;-89
2022/10/15 04:28:54;404099.00;1.35;696.85;0.00;0.00;0.62;;;;;18.20;17.50;;;;;;2276311;61;1516;-87
2022/10/15 04:31:21;247236.00;0.82;427.20;0.00;0.00;0.62;;;;;18.50;15.60;;;;;;2276414;61;1080;-88
2022/10/15 04:33:50;509131.00;1.70;877.55;8041.00;0.03;14.56;;;;;18.30;16.10;;;;;;2276048;61;1680;-85
2022/10/15 04:36:17;257364.00;0.86;444.62;0.00;0.00;0.62;;;;;18.10;17.00;;;;;;2276487;61;2019;-88
2022/10/15 04:38:44;236376.00;0.79;408.52;52688.00;0.18;91.83;;;;;18.10;16.20;;;;;;2276413;61;1449;-88
2022/10/15 04:41:12;155559.00;0.52;269.39;0.00;0.00;0.62;;;;;18.20;16.10;;;;;;2276318;61;1054;-87
2022/10/15 04:43:39;216221.00;0.72;373.84;0.00;0.00;0.62;;;;;18.30;15.40;;;;;;2276346;61;1398;-88
2022/10/15 04:46:09;235814.00;0.79;407.55;23612.00;0.08;41.52;;;;;18.20;16.10;;;;;;2276375;61;987;-86
2022/10/15 04:48:37;210914.00;0.70;364.71;0.00;0.00;0.62;;;;;18.10;16.00;;;;;;2276427;61;1033;-88
2022/10/15 04:51:08;374870.00;1.25;646.61;40513.00;0.14;70.78;;;;;18.10;17.00;;;;;;2276291;61;1092;-87
2022/10/15 04:53:35;144447.00;0.48;250.24;0.00;0.00;0.62;;;;;18.20;16.10;;;;;;2276468;61;974;-87
2022/10/15 04:56:03;234551.00;0.78;405.38;0.00;0.00;0.62;;;;;18.10;15.90;;;;;;2276353;61;1911;-87
2022/10/15 04:58:31;170153.00;0.57;294.53;0.00;0.00;0.62;;;;;18.00;15.90;;;;;;2276369;61;1015;-87
2022/10/15 05:01:01;238095.00;0.79;411.47;0.00;0.00;0.62;;;;;18.10;16.00;;;;;;2276357;61;1115;-90
2022/10/15 05:03:28;324132.00;1.08;559.40;0.00;0.00;0.62;;;;;18.10;15.90;;;;;;2276267;61;1017;-88
2022/10/15 05:06:01;238867.00;0.80;412.80;82881.00;0.28;144.01;;;;;18.20;15.10;;;;;;2276339;61;1309;-87
2022/10/15 05:08:30;267841.00;0.89;462.63;22684.00;0.08;39.92;;;;;17.90;15.80;;;;;;2276294;61;1024;-87
2022/10/15 05:11:01;77778.00;0.26;135.20;0.00;0.00;0.62;;;;;17.90;16.70;;;;;;2276304;61;1043;-87
2022/10/15 05:13:29;243642.00;0.81;421.02;0.00;0.00;0.62;;;;;18.00;15.90;;;;;;2276195;61;1384;-87
2022/10/15 05:15:55;327292.00;1.09;564.83;32912.00;0.11;57.62;;;;;18.00;15.90;;;;;;2276331;61;1917;-86
2022/10/15 05:18:22;278722.00;0.93;481.34;0.00;0.00;0.62;;;;;17.80;16.00;;;;;;2276277;61;983;-86
2022/10/15 05:20:49;158811.00;0.53;274.99;0.00;0.00;0.62;;;;;17.80;16.30;;;;;;2276336;61;1131;-86
2022/10/15 05:23:16;170428.00;0.57;295.00;0.00;0.00;0.62;;;;;17.80;16.60;;;;;;2276379;61;976;-88
2022/10/15 05:25:44;230154.00;0.77;397.81;0.00;0.00;0.62;;;;;17.80;15.80;;;;;;2276233;61;1370;-86
2022/10/15 05:28:11;204225.00;0.68;353.20;0.00;0.00;0.62;;;;;17.70;16.20;;;;;;2276362;61;1053;-87
2022/10/15 05:30:38;189510.00;0.63;327.86;0.00;0.00;0.62;;;;;17.80;15.90;;;;;;2276348;61;1039;-86
2022/10/15 05:33:05;184710.00;0.62;319.60;0.00;0.00;0.62;;;;;17.90;15.90;;;;;;2276191;61;1019;-87
2022/10/15 05:35:32;138907.00;0.46;240.69;0.00;0.00;0.62;;;;;17.80;16.00;;;;;;2276179;61;1998;-88
2022/10/15 05:37:59;275740.00;0.92;476.21;0.00;0.00;0.62;;;;;17.70;16.40;;;;;;2276347;61;923;-86
2022/10/15 05:40:25;118298.00;0.39;205.15;0.00;0.00;0.62;;;;;17.70;17.00;;;;;;2276294;61;1126;-87
2022/10/15 05:42:54;256199.00;0.85;442.61;0.00;0.00;0.62;;;;;17.50;16.90;;;;;;2276259;61;1014;-87
2022/10/15 05:45:21;243602.00;0.81;420.95;0.00;0.00;0.62;;;;;17.50;17.90;;;;;;2276203;61;1387;-87
2022/10/15 05:47:48;239774.00;0.80;414.36;0.00;0.00;0.62;;;;;17.40;17.70;;;;;;2276207;61;1056;-89
2022/10/15 05:50:15;421082.00;1.40;726.05;78472.00;0.26;136.40;;;;;17.30;18.90;;;;;;2276246;61;1041;-89
2022/10/15 05:52:42;484485.00;1.61;835.12;48393.00;0.16;84.41;;;;;17.50;17.90;;;;;;2276693;61;1011;-87
2022/10/15 05:55:09;336227.00;1.12;580.19;54878.00;0.18;95.62;;;;;17.60;17.00;;;;;;2276916;61;1922;-87
2022/10/15 05:57:36;253679.00;0.85;438.28;0.00;0.00;0.62;;;;;17.40;18.20;;;;;;2276911;61;1456;-87
2022/10/15 06:00:06;406954.00;1.36;701.76;0.00;0.00;0.62;;;;;17.40;17.90;;;;;;2276986;61;1054;-87
2022/10/15 06:02:33;211501.00;0.71;365.72;0.00;0.00;0.62;;;;;17.30;17.70;;;;;;2276904;61;974;-88
2022/10/15 06:05:02;42447.00;0.14;74.12;0.00;0.00;0.62;;;;;17.30;18.50;;;;;;2276933;61;1390;-87
2022/10/15 06:07:31;185078.00;0.62;320.23;0.00;0.00;0.62;;;;;17.50;17.80;;;;;;2276885;61;927;-87
2022/10/15 06:09:57;174697.00;0.58;302.36;0.00;0.00;0.62;;;;;17.50;17.00;;;;;;2276842;61;1453;-86
2022/10/15 06:12:24;17935.00;0.06;31.69;0.00;0.00;0.62;;;;;17.50;16.90;;;;;;2276849;61;1012;-88
2022/10/15 06:14:51;262120.00;0.87;452.79;76351.00;0.25;132.73;;;;;17.70;15.90;;;;;;2276745;61;1915;-90
2022/10/15 06:17:19;206142.00;0.69;356.50;0.00;0.00;0.62;;;;;17.70;15.70;;;;;;2276860;61;1026;-88
2022/10/15 06:19:47;140398.00;0.47;243.26;0.00;0.00;0.62;;;;;17.90;15.80;;;;;;2276875;61;1175;-87
2022/10/15 06:22:14;352737.00;1.18;608.57;80945.00;0.27;140.67;;;;;18.00;14.80;;;;;;2276766;61;1680;-86
2022/10/15 06:24:41;81667.00;0.27;141.92;0.00;0.00;0.62;;;;;17.80;15.80;;;;;;2276859;61;1340;-88
2022/10/15 06:27:08;175411.00;0.58;303.59;0.00;0.00;0.62;;;;;17.60;15.90;;;;;;2276880;61;998;-87
2022/10/15 06:32:16;138522.00;0.46;240.02;52865.00;0.18;92.14;;;;;17.80;15.80;;;;;;2276673;61;1692;-87
2022/10/15 06:34:49;244236.00;0.81;422.04;0.00;0.00;0.62;;;;;18.00;14.70;;;;;;2276753;61;1916;-87
2022/10/15 06:37:16;175523.00;0.59;303.78;0.00;0.00;0.62;;;;;17.90;14.90;;;;;;2276945;61;999;-88
2022/10/15 06:39:45;372612.00;1.24;642.73;0.00;0.00;0.62;;;;;17.80;15.70;;;;;;2276874;61;933;-88
2022/10/15 06:42:12;261157.00;0.87;451.14;0.00;0.00;0.62;;;;;17.90;15.80;;;;;;2276795;61;1613;-86
2022/10/15 06:44:39;211654.00;0.71;365.98;0.00;0.00;0.62;;;;;18.00;15.80;;;;;;2276784;61;1623;-86
2022/10/15 06:47:06;115994.00;0.39;201.17;0.00;0.00;0.62;;;;;17.80;15.80;;;;;;2276663;61;1553;-88
2022/10/15 06:49:33;40605.00;0.14;70.94;0.00;0.00;0.62;;;;;17.90;15.90;;;;;;2276676;61;1547;-87
2022/10/15 06:52:01;0.00;0.00;0.62;0.00;0.00;0.62;;;;;18.00;15.40;;;;;;2276808;61;1153;-88
2022/10/15 06:54:28;159553.00;0.53;276.27;0.00;0.00;0.62;;;;;18.20;14.80;;;;;;2276754;61;1361;-85
2022/10/15 06:56:56;287027.00;0.96;495.62;0.00;0.00;0.62;;;;;18.20;14.60;;;;;;2276682;61;2021;-87
2022/10/15 06:59:22;246455.00;0.82;425.85;0.00;0.00;0.62;;;;;18.10;15.70;;;;;;2276699;61;1039;-88
2022/10/15 07:01:49;237718.00;0.79;410.83;0.00;0.00;0.62;;;;;18.00;15.80;;;;;;2276607;61;1003;-88
2022/10/15 07:04:16;253849.00;0.85;438.57;0.00;0.00;0.62;;;;;17.80;16.10;;;;;;2276454;61;1390;-88
2022/10/15 07:06:43;325327.00;1.08;561.45;0.00;0.00;0.62;;;;;17.70;18.40;;;;;;2276768;61;1103;-87
2022/10/15 07:09:11;190324.00;0.63;329.27;0.00;0.00;0.62;;;;;17.60;18.80;;;;;;2276651;61;930;-86
2022/10/15 07:11:38;95258.00;0.32;165.39;0.00;0.00;0.62;;;;;17.80;18.20;;;;;;2276620;61;1144;-89
2022/10/15 07:14:05;209161.00;0.70;361.69;0.00;0.00;0.62;;;;;18.10;16.30;;;;;;2276722;61;1309;-86
2022/10/15 07:16:32;420463.00;1.40;724.99;52689.00;0.18;91.84;;;;;18.20;16.10;;;;;;2276591;61;1907;-87
2022/10/15 07:18:59;156297.00;0.52;270.66;0.00;0.00;0.62;;;;;18.20;16.10;;;;;;2276581;61;1127;-86
2022/10/15 07:21:26;67290.00;0.22;117.08;0.00;0.00;0.62;;;;;18.00;17.20;;;;;;2276528;61;1019;-88
2022/10/15 07:23:53;118579.00;0.40;205.63;0.00;0.00;0.62;;;;;18.20;16.80;;;;;;2276668;61;1364;-88
2022/10/15 07:26:21;282862.00;0.94;488.46;0.00;0.00;0.62;;;;;18.20;16.10;;;;;;2276651;61;1523;-86
2022/10/15 07:28:48;287153.00;0.96;495.83;0.00;0.00;0.62;;;;;18.20;17.00;;;;;;2276712;61;993;-88
2022/10/15 07:31:15;302802.00;1.01;522.74;61535.00;0.21;107.13;;;;;18.20;18.10;;;;;;2276635;61;936;-87
2022/10/15 07:33:42;251535.00;0.84;434.59;0.00;0.00;0.62;;;;;18.00;19.50;;;;;;2276605;61;1346;-88
2022/10/15 07:36:11;262620.00;0.88;453.65;59823.00;0.20;104.17;;;;;18.30;19.20;;;;;;2276568;61;2002;-88
2022/10/15 07:38:39;158643.00;0.53;274.70;0.00;0.00;0.62;;;;;18.70;17.90;;;;;;2276654;61;1568;-86
2022/10/15 07:41:08;297984.00;0.99;514.45;0.00;0.00;0.62;;;;;19.20;15.30;;;;;;2276593;61;1005;-87
2022/10/15 07:43:37;280412.00;0.93;484.25;0.00;0.00;0.62;;;;;19.40;13.90;;;;;;2276601;61;1165;-88
2022/10/15 07:46:04;222074.00;0.74;383.91;0.00;0.00;0.62;;;;;19.50;13.80;;;;;;2276584;61;1450;-87
2022/10/15 07:48:32;336677.00;1.12;580.96;79727.00;0.27;138.57;;;;;19.60;13.00;;;;;;2276474;61;1414;-87
2022/10/15 07:51:01;275106.00;0.92;475.12;93101.00;0.31;161.66;;;;;19.90;11.90;;;;;;2276550;61;1997;-88
2022/10/15 07:53:28;331919.00;1.11;572.78;0.00;0.00;0.62;;;;;19.90;11.80;;;;;;2276446;61;995;-90
2022/10/15 07:55:59;252882.00;0.84;436.91;0.00;0.00;0.62;;;;;19.90;12.30;;;;;;2276518;61;1931;-86
2022/10/15 07:58:29;367829.00;1.23;634.51;0.00;0.00;0.62;;;;;20.20;11.00;;;;;;2276520;61;1683;-87
2022/10/15 08:06:06;2292820.00;7.64;4243.94;9127.00;0.03;16.44;;;;;20.50;10.00;;;;;;2257839;61;1393;-87
2022/10/15 08:20:17;647116.00;2.16;1115.65;0.00;0.00;0.62;;;;;20.00;11.50;;;;;;732132;60;1671;-85
2022/10/15 08:22:45;336264.00;1.12;580.25;0.00;0.00;0.62;;;;;19.90;11.20;;;;;;2272372;61;1028;-85
2022/10/15 08:25:32;347680.00;1.16;599.87;0.00;0.00;0.62;;;;;19.60;12.00;;;;;;2272283;61;1342;-87
2022/10/15 08:28:02;164604.00;0.55;284.97;0.00;0.00;0.62;;;;;19.70;12.70;;;;;;2272416;61;904;-87
2022/10/15 08:30:29;101764.00;0.34;176.62;0.00;0.00;0.62;;;;;19.60;13.10;;;;;;2272346;61;1087;-88
2022/10/15 08:32:56;479978.00;1.60;827.36;42130.00;0.14;73.57;;;;;19.70;13.50;;;;;;2272324;61;1035;-88
2022/10/15 08:35:23;590596.00;1.97;1017.99;55034.00;0.18;95.89;;;;;19.50;14.30;;;;;;2272330;61;1931;-87
2022/10/15 08:37:53;512138.00;1.71;882.72;41241.00;0.14;72.04;;;;;19.30;14.50;;;;;;2272117;61;2084;-87
2022/10/15 08:40:22;80354.00;0.27;139.65;0.00;0.00;0.62;;;;;19.30;14.50;;;;;;2268287;61;1045;-87
2022/10/15 08:42:49;110547.00;0.37;191.77;0.00;0.00;0.62;;;;;19.60;14.10;;;;;;2268359;61;1050;-87
2022/10/15 08:45:23;177986.00;0.59;308.02;0.00;0.00;0.62;;;;;20.00;12.70;;;;;;2268377;61;1261;-86
2022/10/15 08:47:57;263020.00;0.88;454.34;0.00;0.00;0.62;;;;;20.40;11.30;;;;;;2268156;61;1625;-86
2022/10/15 08:50:34;102395.00;0.34;177.71;0.00;0.00;0.62;;;;;20.90;9.20;;;;;;2268314;61;1097;-89
2022/10/15 08:53:03;38172.00;0.13;66.73;0.00;0.00;0.62;;;;;21.10;7.00;;;;;;2268459;61;1076;-86
2022/10/15 08:55:38;67309.00;0.22;117.11;0.00;0.00;0.62;;;;;21.10;7.00;;;;;;2268223;61;1918;-86
2022/10/15 08:58:13;160030.00;0.53;277.09;0.00;0.00;0.62;;;;;21.40;6.90;;;;;;2268333;61;1453;-85
2022/10/15 09:00:46;192068.00;0.64;332.27;0.00;0.00;0.62;;;;;21.90;5.60;;;;;;2268251;61;2173;-85
2022/10/15 09:03:30;84866.00;0.28;147.44;0.00;0.00;0.62;;;;;22.00;5.30;;;;;;2268395;61;835;-86
2022/10/15 09:06:06;212477.00;0.71;367.40;0.00;0.00;0.62;;;;;22.10;5.00;;;;;;2268265;61;1416;-86
2022/10/15 09:08:45;142520.00;0.48;246.91;0.00;0.00;0.62;;;;;22.00;3.20;;;;;;2268245;61;2008;-87
2022/10/15 09:11:19;281133.00;0.94;485.49;0.00;0.00;0.62;;;;;21.90;5.30;;;;;;2268325;61;1128;-89
2022/10/15 09:13:47;126951.00;0.42;220.07;0.00;0.00;0.62;;;;;21.80;4.40;;;;;;2268282;61;1331;-88
2022/10/15 09:16:17;194177.00;0.65;335.90;936.00;0.00;2.24;;;;;21.60;3.90;;;;;;2268122;61;1909;-86
2022/10/15 09:18:47;16063.00;0.05;28.45;0.00;0.00;0.62;;;;;21.40;3.50;;;;;;2268258;61;1159;-86
2022/10/15 09:21:15;220543.00;0.74;381.28;0.00;0.00;0.62;;;;;21.00;4.00;;;;;;2268206;61;1104;-86
2022/10/15 09:23:44;401871.00;1.34;693.02;85296.00;0.28;148.18;;;;;20.90;5.20;;;;;;2268169;61;1286;-85
2022/10/15 09:26:24;152844.00;0.51;264.71;0.00;0.00;0.62;;;;;20.80;4.70;;;;;;2268146;61;988;-84
2022/10/15 09:28:59;207605.00;0.69;359.01;0.00;0.00;0.62;;;;;21.10;5.20;;;;;;2268260;61;1016;-86
2022/10/15 09:31:34;319988.00;1.07;552.28;0.00;0.00;0.62;;;;;20.50;6.40;;;;;;2268250;61;1456;-86
2022/10/15 09:34:07;265909.00;0.89;459.31;52927.00;0.18;92.25;;;;;20.40;5.60;;;;;;2268128;61;1392;-86
2022/10/15 09:36:40;527313.00;1.76;908.86;0.00;0.00;0.62;;;;;20.60;6.30;;;;;;2268170;61;1926;-85
2022/10/15 09:39:35;187607.00;0.63;324.59;0.00;0.00;0.62;;;;;20.80;7.20;;;;;;2268245;61;1051;-85
2022/10/15 09:42:16;100568.00;0.34;174.55;0.00;0.00;0.62;;;;;21.00;5.00;;;;;;2268215;61;1720;-87
2022/10/15 09:44:46;89383.00;0.30;155.24;0.00;0.00;0.62;;;;;21.20;3.20;;;;;;2268137;61;1631;-86
2022/10/15 09:47:22;241027.00;0.80;416.52;0.00;0.00;0.62;;;;;21.50;2.90;;;;;;2268142;61;1027;-87
2022/10/15 09:49:49;135064.00;0.45;234.06;0.00;0.00;0.62;;;;;21.50;1.50;;;;;;2268242;61;1150;-86
2022/10/15 09:52:25;341057.00;1.14;588.49;0.00;0.00;0.62;;;;;21.00;1.80;;;;;;2268127;61;1067;-86
2022/10/15 09:55:03;336540.00;1.12;580.73;66034.00;0.22;114.91;;;;;21.10;1.50;;;;;;2268013;61;1346;-86
2022/10/15 09:57:33;351474.00;1.17;606.39;0.00;0.00;0.62;;;;;20.70;2.50;;;;;;2268115;61;1981;-85
2022/10/15 10:00:02;201184.00;0.67;347.96;0.00;0.00;0.62;;;;;20.30;3.30;;;;;;2268118;61;1146;-87
2022/10/15 10:02:30;335041.00;1.12;578.15;0.00;0.00;0.62;;;;;20.20;3.20;;;;;;2268171;61;1059;-88
2022/10/15 10:04:57;319970.00;1.07;552.25;0.00;0.00;0.62;;;;;20.30;4.50;;;;;;2268016;61;1416;-85
2022/10/15 10:07:33;223259.00;0.74;385.95;0.00;0.00;0.62;;;;;20.80;3.60;;;;;;2268086;61;1017;-86
2022/10/15 10:10:05;193086.00;0.64;334.02;0.00;0.00;0.62;;;;;21.00;2.10;;;;;;2268088;61;1118;-85
2022/10/15 10:12:35;324639.00;1.08;560.27;37156.00;0.12;64.97;;;;;20.90;2.70;;;;;;2268093;61;1144;-86
2022/10/15 10:15:08;252319.00;0.84;435.94;0.00;0.00;0.62;;;;;20.70;1.80;;;;;;2268093;61;1392;-86
2022/10/15 10:17:35;222994.00;0.74;385.50;0.00;0.00;0.62;;;;;20.50;1.10;;;;;;2268011;61;1986;-83
2022/10/15 10:20:16;57124.00;0.19;99.50;0.00;0.00;0.62;;;;;20.40;1.20;;;;;;2268113;61;912;-86
2022/10/15 10:22:45;129792.00;0.43;224.97;0.00;0.00;0.62;;;;;20.20;2.10;;;;;;2268190;61;910;-85
2022/10/15 10:25:30;151568.00;0.51;262.51;0.00;0.00;0.62;;;;;20.20;2.70;;;;;;2268032;61;1587;-86